sensor_id;sensor_type;location;lat;lon;timestamp;pressure;altitude;pressure_sealevel;temperature;humidity
63395;BME280;49531;-34.520;150.798;2024-03-29T00:00:12;101879.78;;;25.45;56.08
63395;BME280;49531;-34.520;150.798;2024-03-29T00:02:40;101874.31;;;25.45;56.09
63395;BME280;49531;-34.520;150.798;2024-03-29T00:05:07;101873.50;;;25.49;56.26
63395;BME280;49531;-34.520;150.798;2024-03-29T00:07:35;101868.59;;;25.51;56.03
63395;BME280;49531;-34.520;150.798;2024-03-29T00:10:02;101848.03;;;25.44;55.67
63395;BME280;49531;-34.520;150.798;2024-03-29T00:12:29;101869.97;;;25.54;55.90
63395;BME280;49531;-34.520;150.798;2024-03-29T00:14:56;101868.34;;;25.58;56.31
63395;BME280;49531;-34.520;150.798;2024-03-29T00:17:23;101868.88;;;25.60;56.18
63395;BME280;49531;-34.520;150.798;2024-03-29T00:19:50;101864.03;;;25.67;56.19
63395;BME280;49531;-34.520;150.798;2024-03-29T00:22:17;101860.75;;;25.70;56.24
63395;BME280;49531;-34.520;150.798;2024-03-29T00:24:44;101862.41;;;25.76;55.97
63395;BME280;49531;-34.520;150.798;2024-03-29T00:27:11;101860.25;;;25.83;55.93
63395;BME280;49531;-34.520;150.798;2024-03-29T00:29:38;101867.38;;;25.84;55.63
63395;BME280;49531;-34.520;150.798;2024-03-29T00:32:06;101856.44;;;25.89;55.31
63395;BME280;49531;-34.520;150.798;2024-03-29T00:34:33;101857.53;;;25.88;55.46
63395;BME280;49531;-34.520;150.798;2024-03-29T00:37:00;101855.88;;;25.82;54.92
63395;BME280;49531;-34.520;150.798;2024-03-29T00:39:27;101853.44;;;25.91;54.66
63395;BME280;49531;-34.520;150.798;2024-03-29T00:41:54;101854.56;;;25.95;54.83
63395;BME280;49531;-34.520;150.798;2024-03-29T00:44:22;101845.22;;;25.86;54.71
63395;BME280;49531;-34.520;150.798;2024-03-29T00:46:49;101849.34;;;25.88;54.71
63395;BME280;49531;-34.520;150.798;2024-03-29T00:49:16;101849.34;;;25.88;55.01
63395;BME280;49531;-34.520;150.798;2024-03-29T00:51:43;101842.50;;;26.01;54.43
63395;BME280;49531;-34.520;150.798;2024-03-29T00:54:10;101840.88;;;25.95;54.28
63395;BME280;49531;-34.520;150.798;2024-03-29T00:56:37;101854.03;;;26.08;54.23
63395;BME280;49531;-34.520;150.798;2024-03-29T00:59:04;101844.16;;;26.12;53.48
63395;BME280;49531;-34.520;150.798;2024-03-29T01:01:32;101845.53;;;26.10;53.94
63395;BME280;49531;-34.520;150.798;2024-03-29T01:03:59;101844.44;;;26.16;54.36
63395;BME280;49531;-34.520;150.798;2024-03-29T01:06:26;101839.78;;;26.16;54.18
63395;BME280;49531;-34.520;150.798;2024-03-29T01:08:53;101836.50;;;26.14;53.92
63395;BME280;49531;-34.520;150.798;2024-03-29T01:11:20;101836.50;;;26.14;53.99
63395;BME280;49531;-34.520;150.798;2024-03-29T01:13:47;101834.06;;;26.23;53.37
63395;BME280;49531;-34.520;150.798;2024-03-29T01:16:15;101832.97;;;26.24;53.38
63395;BME280;49531;-34.520;150.798;2024-03-29T01:18:42;101829.13;;;26.30;53.28
63395;BME280;49531;-34.520;150.798;2024-03-29T01:21:10;101837.69;;;26.39;51.88
63395;BME280;49531;-34.520;150.798;2024-03-29T01:23:37;101830.81;;;26.31;52.30
63395;BME280;49531;-34.520;150.798;2024-03-29T01:26:06;101826.38;;;26.25;52.18
63395;BME280;49531;-34.520;150.798;2024-03-29T01:28:33;101827.22;;;26.20;52.63
63395;BME280;49531;-34.520;150.798;2024-03-29T01:31:02;101825.03;;;26.22;52.85
63395;BME280;49531;-34.520;150.798;2024-03-29T01:33:29;101816.31;;;26.36;52.19
63395;BME280;49531;-34.520;150.798;2024-03-29T01:35:59;101814.38;;;26.36;52.28
63395;BME280;49531;-34.520;150.798;2024-03-29T01:38:26;101812.47;;;26.37;51.86
63395;BME280;49531;-34.520;150.798;2024-03-29T01:40:53;101810.28;;;26.34;52.12
63395;BME280;49531;-34.520;150.798;2024-03-29T01:43:20;101806.16;;;26.36;52.24
63395;BME280;49531;-34.520;150.798;2024-03-29T01:45:49;101795.47;;;26.35;52.17
63395;BME280;49531;-34.520;150.798;2024-03-29T01:48:20;101802.84;;;26.44;51.88
63395;BME280;49531;-34.520;150.798;2024-03-29T01:50:48;101800.38;;;26.43;52.10
63395;BME280;49531;-34.520;150.798;2024-03-29T01:53:16;101794.09;;;26.42;51.80
63395;BME280;49531;-34.520;150.798;2024-03-29T01:55:45;101785.88;;;26.32;51.81
63395;BME280;49531;-34.520;150.798;2024-03-29T01:58:12;101786.72;;;26.38;51.45
63395;BME280;49531;-34.520;150.798;2024-03-29T02:00:44;101783.69;;;26.39;51.27
63395;BME280;49531;-34.520;150.798;2024-03-29T02:03:14;101781.47;;;26.41;52.08
63395;BME280;49531;-34.520;150.798;2024-03-29T02:05:45;101779.84;;;26.50;51.42
63395;BME280;49531;-34.520;150.798;2024-03-29T02:08:14;101773.25;;;26.56;51.89
63395;BME280;49531;-34.520;150.798;2024-03-29T02:10:46;101781.47;;;26.62;51.24
63395;BME280;49531;-34.520;150.798;2024-03-29T02:13:14;101765.84;;;26.62;51.28
63395;BME280;49531;-34.520;150.798;2024-03-29T02:15:41;101772.72;;;26.65;51.38
63395;BME280;49531;-34.520;150.798;2024-03-29T02:18:09;101760.09;;;26.58;51.34
63395;BME280;49531;-34.520;150.798;2024-03-29T02:20:36;101762.31;;;26.56;51.72
63395;BME280;49531;-34.520;150.798;2024-03-29T02:23:08;101756.25;;;26.60;51.80
63395;BME280;49531;-34.520;150.798;2024-03-29T02:25:37;101749.13;;;26.58;51.45
63395;BME280;49531;-34.520;150.798;2024-03-29T02:28:05;101745.84;;;26.56;51.90
63395;BME280;49531;-34.520;150.798;2024-03-29T02:30:32;101743.94;;;26.62;51.88
63395;BME280;49531;-34.520;150.798;2024-03-29T02:33:00;101739.53;;;26.71;51.26
63395;BME280;49531;-34.520;150.798;2024-03-29T02:35:28;101732.69;;;26.69;51.83
63395;BME280;49531;-34.520;150.798;2024-03-29T02:37:57;101726.38;;;26.68;51.87
63395;BME280;49531;-34.520;150.798;2024-03-29T02:40:24;101726.09;;;26.70;51.75
63395;BME280;49531;-34.520;150.798;2024-03-29T02:42:51;101719.53;;;26.71;51.43
63395;BME280;49531;-34.520;150.798;2024-03-29T02:45:18;101720.34;;;26.76;51.35
63395;BME280;49531;-34.520;150.798;2024-03-29T02:47:45;101727.13;;;26.84;51.33
63395;BME280;49531;-34.520;150.798;2024-03-29T02:50:14;101722.81;;;26.78;51.62
63395;BME280;49531;-34.520;150.798;2024-03-29T02:52:42;101720.56;;;26.80;51.45
63395;BME280;49531;-34.520;150.798;2024-03-29T02:55:09;101703.63;;;26.78;51.26
63395;BME280;49531;-34.520;150.798;2024-03-29T02:57:40;101709.84;;;26.88;50.90
63395;BME280;49531;-34.520;150.798;2024-03-29T03:00:07;101693.69;;;26.82;51.33
63395;BME280;49531;-34.520;150.798;2024-03-29T03:02:39;101704.66;;;26.97;51.13
63395;BME280;49531;-34.520;150.798;2024-03-29T03:05:07;101700.53;;;27.00;51.23
63395;BME280;49531;-34.520;150.798;2024-03-29T03:07:37;101690.38;;;27.00;50.76
63395;BME280;49531;-34.520;150.798;2024-03-29T03:10:22;101686.53;;;27.06;49.53
63395;BME280;49531;-34.520;150.798;2024-03-29T03:13:07;101686.25;;;27.03;50.40
63395;BME280;49531;-34.520;150.798;2024-03-29T03:15:35;101677.75;;;27.04;49.56
63395;BME280;49531;-34.520;150.798;2024-03-29T03:18:02;101662.13;;;27.00;50.80
63395;BME280;49531;-34.520;150.798;2024-03-29T03:20:29;101671.44;;;27.04;50.56
63395;BME280;49531;-34.520;150.798;2024-03-29T03:22:58;101671.16;;;27.05;49.57
63395;BME280;49531;-34.520;150.798;2024-03-29T03:25:28;101684.34;;;27.03;50.45
63395;BME280;49531;-34.520;150.798;2024-03-29T03:27:55;101673.63;;;27.07;50.23
63395;BME280;49531;-34.520;150.798;2024-03-29T03:30:22;101679.38;;;27.10;50.46
63395;BME280;49531;-34.520;150.798;2024-03-29T03:32:49;101662.41;;;27.03;49.78
63395;BME280;49531;-34.520;150.798;2024-03-29T03:35:19;101667.31;;;27.06;50.35
63395;BME280;49531;-34.520;150.798;2024-03-29T03:37:46;101679.94;;;27.07;50.53
63395;BME280;49531;-34.520;150.798;2024-03-29T03:40:13;101674.72;;;27.11;50.10
63395;BME280;49531;-34.520;150.798;2024-03-29T03:42:40;101665.41;;;27.07;50.11
63395;BME280;49531;-34.520;150.798;2024-03-29T03:45:08;101659.63;;;27.08;50.10
63395;BME280;49531;-34.520;150.798;2024-03-29T03:47:35;101665.63;;;27.15;49.59
63395;BME280;49531;-34.520;150.798;2024-03-29T03:50:02;101662.94;;;27.05;50.03
63395;BME280;49531;-34.520;150.798;2024-03-29T03:52:29;101669.47;;;27.14;48.44
63395;BME280;49531;-34.520;150.798;2024-03-29T03:54:56;101665.38;;;27.12;48.96
63395;BME280;49531;-34.520;150.798;2024-03-29T03:57:23;101661.28;;;27.09;49.19
63395;BME280;49531;-34.520;150.798;2024-03-29T03:59:51;101647.03;;;27.07;49.02
63395;BME280;49531;-34.520;150.798;2024-03-29T04:02:18;101649.75;;;27.07;48.88
63395;BME280;49531;-34.520;150.798;2024-03-29T04:04:48;101656.06;;;27.08;48.93
63395;BME280;49531;-34.520;150.798;2024-03-29T04:07:15;101645.94;;;27.03;48.83
63395;BME280;49531;-34.520;150.798;2024-03-29T04:09:42;101644.56;;;27.06;49.10
63395;BME280;49531;-34.520;150.798;2024-03-29T04:12:10;101643.47;;;27.02;48.72
63395;BME280;49531;-34.520;150.798;2024-03-29T04:14:37;101647.56;;;27.09;48.82
63395;BME280;49531;-34.520;150.798;2024-03-29T04:17:04;101654.97;;;27.09;48.53
63395;BME280;49531;-34.520;150.798;2024-03-29T04:19:31;101632.78;;;27.05;49.12
63395;BME280;49531;-34.520;150.798;2024-03-29T04:21:58;101641.00;;;27.05;49.47
63395;BME280;49531;-34.520;150.798;2024-03-29T04:24:25;101639.91;;;27.06;49.28
63395;BME280;49531;-34.520;150.798;2024-03-29T04:26:54;101644.28;;;27.07;49.41
63395;BME280;49531;-34.520;150.798;2024-03-29T04:29:21;101632.50;;;27.02;48.53
63395;BME280;49531;-34.520;150.798;2024-03-29T04:31:48;101643.47;;;27.02;49.02
63395;BME280;49531;-34.520;150.798;2024-03-29T04:34:15;101633.63;;;26.96;48.97
63395;BME280;49531;-34.520;150.798;2024-03-29T04:36:42;101639.09;;;27.01;49.38
63395;BME280;49531;-34.520;150.798;2024-03-29T04:39:09;101632.22;;;27.03;49.10
63395;BME280;49531;-34.520;150.798;2024-03-29T04:41:36;101617.97;;;27.06;48.76
63395;BME280;49531;-34.520;150.798;2024-03-29T04:44:04;101637.13;;;27.11;47.91
63395;BME280;49531;-34.520;150.798;2024-03-29T04:46:31;101626.78;;;26.98;48.44
63395;BME280;49531;-34.520;150.798;2024-03-29T04:48:58;101634.97;;;27.03;48.73
63395;BME280;49531;-34.520;150.798;2024-03-29T04:51:25;101633.34;;;26.97;47.88
63395;BME280;49531;-34.520;150.798;2024-03-29T04:53:52;101628.16;;;26.96;48.27
63395;BME280;49531;-34.520;150.798;2024-03-29T04:56:20;101610.34;;;26.83;48.56
63395;BME280;49531;-34.520;150.798;2024-03-29T04:58:47;101627.31;;;26.95;48.16
63395;BME280;49531;-34.520;150.798;2024-03-29T05:01:14;101630.03;;;26.95;48.04
63395;BME280;49531;-34.520;150.798;2024-03-29T05:03:41;101633.09;;;26.88;47.78
63395;BME280;49531;-34.520;150.798;2024-03-29T05:06:08;101625.44;;;26.80;48.60
63395;BME280;49531;-34.520;150.798;2024-03-29T05:08:35;101626.25;;;26.81;48.18
63395;BME280;49531;-34.520;150.798;2024-03-29T05:11:03;101623.25;;;26.82;48.64
63395;BME280;49531;-34.520;150.798;2024-03-29T05:13:34;101623.50;;;26.86;48.34
63395;BME280;49531;-34.520;150.798;2024-03-29T05:16:01;101618.56;;;26.88;48.58
63395;BME280;49531;-34.520;150.798;2024-03-29T05:18:28;101617.19;;;26.85;48.39
63395;BME280;49531;-34.520;150.798;2024-03-29T05:20:55;101618.00;;;26.86;48.44
63395;BME280;49531;-34.520;150.798;2024-03-29T05:23:22;101618.56;;;26.83;48.53
63395;BME280;49531;-34.520;150.798;2024-03-29T05:25:49;101619.66;;;26.87;48.23
63395;BME280;49531;-34.520;150.798;2024-03-29T05:28:16;101600.56;;;26.72;47.94
63395;BME280;49531;-34.520;150.798;2024-03-29T05:30:43;101614.53;;;26.75;48.96
63395;BME280;49531;-34.520;150.798;2024-03-29T05:33:10;101605.47;;;26.75;48.38
63395;BME280;49531;-34.520;150.798;2024-03-29T05:35:37;101624.06;;;26.83;48.61
63395;BME280;49531;-34.520;150.798;2024-03-29T05:38:05;101622.13;;;26.88;48.20
63395;BME280;49531;-34.520;150.798;2024-03-29T05:40:32;101619.38;;;26.88;47.78
63395;BME280;49531;-34.520;150.798;2024-03-29T05:42:59;101621.31;;;26.83;47.54
63395;BME280;49531;-34.520;150.798;2024-03-29T05:45:30;101620.56;;;26.72;47.44
63395;BME280;49531;-34.520;150.798;2024-03-29T05:47:58;101619.22;;;26.70;47.46
63395;BME280;49531;-34.520;150.798;2024-03-29T05:50:26;101617.81;;;26.72;48.05
63395;BME280;49531;-34.520;150.798;2024-03-29T05:52:53;101620.56;;;26.72;47.60
63395;BME280;49531;-34.520;150.798;2024-03-29T05:55:20;101615.66;;;26.64;47.52
63395;BME280;49531;-34.520;150.798;2024-03-29T05:57:47;101621.19;;;26.54;47.65
63395;BME280;49531;-34.520;150.798;2024-03-29T06:00:15;101618.69;;;26.57;48.24
63395;BME280;49531;-34.520;150.798;2024-03-29T06:02:43;101612.69;;;26.55;48.38
63395;BME280;49531;-34.520;150.798;2024-03-29T06:05:14;101614.88;;;26.53;47.90
63395;BME280;49531;-34.520;150.798;2024-03-29T06:07:41;101610.22;;;26.54;47.59
63395;BME280;49531;-34.520;150.798;2024-03-29T06:10:09;101612.13;;;26.53;47.90
63395;BME280;49531;-34.520;150.798;2024-03-29T06:12:37;101608.84;;;26.56;48.01
63395;BME280;49531;-34.520;150.798;2024-03-29T06:15:07;101605.25;;;26.61;48.03
63395;BME280;49531;-34.520;150.798;2024-03-29T06:17:52;101609.41;;;26.53;47.88
63395;BME280;49531;-34.520;150.798;2024-03-29T06:20:19;101617.06;;;26.51;47.90
63395;BME280;49531;-34.520;150.798;2024-03-29T06:22:47;101616.25;;;26.51;47.92
63395;BME280;49531;-34.520;150.798;2024-03-29T06:25:14;101606.13;;;26.41;48.08
63395;BME280;49531;-34.520;150.798;2024-03-29T06:27:42;101612.75;;;26.35;48.34
63395;BME280;49531;-34.520;150.798;2024-03-29T06:30:15;101622.06;;;26.34;48.83
63395;BME280;49531;-34.520;150.798;2024-03-29T06:32:43;101605.63;;;26.34;48.80
63395;BME280;49531;-34.520;150.798;2024-03-29T06:35:12;101595.75;;;26.28;48.75
63395;BME280;49531;-34.520;150.798;2024-03-29T06:37:39;101610.56;;;26.32;48.85
63395;BME280;49531;-34.520;150.798;2024-03-29T06:40:08;101611.41;;;26.33;48.00
63395;BME280;49531;-34.520;150.798;2024-03-29T06:42:35;101618.78;;;26.37;48.24
63395;BME280;49531;-34.520;150.798;2024-03-29T06:45:02;101610.03;;;26.35;48.15
63395;BME280;49531;-34.520;150.798;2024-03-29T06:47:35;101613.84;;;26.24;48.89
63395;BME280;49531;-34.520;150.798;2024-03-29T06:50:03;101615.75;;;26.23;48.93
63395;BME280;49531;-34.520;150.798;2024-03-29T06:52:30;101625.63;;;26.35;49.06
63395;BME280;49531;-34.520;150.798;2024-03-29T06:54:57;101620.44;;;26.38;49.72
63395;BME280;49531;-34.520;150.798;2024-03-29T06:57:24;101626.69;;;26.44;49.21
63395;BME280;49531;-34.520;150.798;2024-03-29T06:59:55;101629.16;;;26.45;49.22
63395;BME280;49531;-34.520;150.798;2024-03-29T07:02:22;101631.31;;;26.48;48.54
63395;BME280;49531;-34.520;150.798;2024-03-29T07:04:49;101627.75;;;26.53;48.85
63395;BME280;49531;-34.520;150.798;2024-03-29T07:07:16;101623.38;;;26.52;49.25
63395;BME280;49531;-34.520;150.798;2024-03-29T07:09:43;101632.94;;;26.60;49.15
63395;BME280;49531;-34.520;150.798;2024-03-29T07:12:10;101622.81;;;26.60;49.24
63395;BME280;49531;-34.520;150.798;2024-03-29T07:14:38;101612.13;;;26.53;49.06
63395;BME280;49531;-34.520;150.798;2024-03-29T07:17:05;101631.56;;;26.62;48.99
63395;BME280;49531;-34.520;150.798;2024-03-29T07:19:32;101630.16;;;26.70;49.06
63395;BME280;49531;-34.520;150.798;2024-03-29T07:21:59;101637.28;;;26.71;48.97
63395;BME280;49531;-34.520;150.798;2024-03-29T07:24:26;101620.31;;;26.64;48.86
63395;BME280;49531;-34.520;150.798;2024-03-29T07:26:53;101622.22;;;26.68;48.88
63395;BME280;49531;-34.520;150.798;2024-03-29T07:29:23;101630.44;;;26.73;48.99
63395;BME280;49531;-34.520;150.798;2024-03-29T07:31:50;101636.72;;;26.74;49.02
63395;BME280;49531;-34.520;150.798;2024-03-29T07:34:19;101635.63;;;26.75;48.55
63395;BME280;49531;-34.520;150.798;2024-03-29T07:36:46;101633.72;;;26.75;48.69
63395;BME280;49531;-34.520;150.798;2024-03-29T07:39:13;101629.06;;;26.71;49.00
63395;BME280;49531;-34.520;150.798;2024-03-29T07:41:40;101630.69;;;26.77;49.25
63395;BME280;49531;-34.520;150.798;2024-03-29T07:44:07;101635.34;;;26.76;49.00
63395;BME280;49531;-34.520;150.798;2024-03-29T07:46:35;101640.56;;;26.73;49.11
63395;BME280;49531;-34.520;150.798;2024-03-29T07:49:06;101645.78;;;26.74;48.57
63395;BME280;49531;-34.520;150.798;2024-03-29T07:51:34;101649.91;;;26.72;48.33
63395;BME280;49531;-34.520;150.798;2024-03-29T07:54:01;101654.53;;;26.76;49.15
63395;BME280;49531;-34.520;150.798;2024-03-29T07:56:28;101633.72;;;26.70;48.74
63395;BME280;49531;-34.520;150.798;2024-03-29T07:58:55;101651.81;;;26.76;48.23
63395;BME280;49531;-34.520;150.798;2024-03-29T08:01:23;101650.44;;;26.74;48.54
63395;BME280;49531;-34.520;150.798;2024-03-29T08:03:53;101654.53;;;26.76;48.33
63395;BME280;49531;-34.520;150.798;2024-03-29T08:06:21;101646.88;;;26.73;48.38
63395;BME280;49531;-34.520;150.798;2024-03-29T08:08:50;101646.06;;;26.73;48.29
63395;BME280;49531;-34.520;150.798;2024-03-29T08:11:17;101654.00;;;26.74;48.48
63395;BME280;49531;-34.520;150.798;2024-03-29T08:13:44;101626.63;;;26.64;48.32
63395;BME280;49531;-34.520;150.798;2024-03-29T08:16:11;101651.81;;;26.76;48.46
63395;BME280;49531;-34.520;150.798;2024-03-29T08:18:38;101636.78;;;26.64;48.64
63395;BME280;49531;-34.520;150.798;2024-03-29T08:21:06;101647.72;;;26.69;48.55
63395;BME280;49531;-34.520;150.798;2024-03-29T08:23:41;101652.91;;;26.70;48.50
63395;BME280;49531;-34.520;150.798;2024-03-29T08:26:13;101641.44;;;26.63;48.72
63395;BME280;49531;-34.520;150.798;2024-03-29T08:28:40;101645.53;;;26.66;48.86
63395;BME280;49531;-34.520;150.798;2024-03-29T08:31:07;101654.84;;;26.65;48.84
63395;BME280;49531;-34.520;150.798;2024-03-29T08:33:38;101664.72;;;26.66;48.85
63395;BME280;49531;-34.520;150.798;2024-03-29T08:36:06;101662.25;;;26.64;48.75
63395;BME280;49531;-34.520;150.798;2024-03-29T08:38:35;101664.72;;;26.61;48.73
63395;BME280;49531;-34.520;150.798;2024-03-29T08:41:02;101647.78;;;26.48;48.95
63395;BME280;49531;-34.520;150.798;2024-03-29T08:43:30;101663.91;;;26.60;48.81
63395;BME280;49531;-34.520;150.798;2024-03-29T08:45:57;101662.00;;;26.55;48.67
63395;BME280;49531;-34.520;150.798;2024-03-29T08:48:26;101670.22;;;26.55;48.65
63395;BME280;49531;-34.520;150.798;2024-03-29T08:50:53;101661.19;;;26.50;48.53
63395;BME280;49531;-34.520;150.798;2024-03-29T08:53:20;101671.59;;;26.53;48.84
63395;BME280;49531;-34.520;150.798;2024-03-29T08:55:48;101675.72;;;26.50;48.78
63395;BME280;49531;-34.520;150.798;2024-03-29T08:58:15;101679.28;;;26.51;48.77
63395;BME280;49531;-34.520;150.798;2024-03-29T09:00:44;101681.47;;;26.49;48.88
63395;BME280;49531;-34.520;150.798;2024-03-29T09:03:18;101685.59;;;26.46;48.90
63395;BME280;49531;-34.520;150.798;2024-03-29T09:05:45;101695.16;;;26.49;48.98
63395;BME280;49531;-34.520;150.798;2024-03-29T09:08:12;101692.16;;;26.45;48.92
63395;BME280;49531;-34.520;150.798;2024-03-29T09:10:40;101689.69;;;26.44;49.03
63395;BME280;49531;-34.520;150.798;2024-03-29T09:13:07;101692.16;;;26.45;48.98
63395;BME280;49531;-34.520;150.798;2024-03-29T09:15:35;101698.75;;;26.44;48.91
63395;BME280;49531;-34.520;150.798;2024-03-29T09:18:03;101694.34;;;26.43;48.88
63395;BME280;49531;-34.520;150.798;2024-03-29T09:20:37;101694.09;;;26.40;49.06
63395;BME280;49531;-34.520;150.798;2024-03-29T09:23:04;101691.66;;;26.33;49.00
63395;BME280;49531;-34.520;150.798;2024-03-29T09:25:31;101702.63;;;26.38;49.08
63395;BME280;49531;-34.520;150.798;2024-03-29T09:27:59;101697.69;;;26.35;49.11
63395;BME280;49531;-34.520;150.798;2024-03-29T09:30:26;101698.50;;;26.31;49.12
63395;BME280;49531;-34.520;150.798;2024-03-29T09:32:53;101711.38;;;26.35;49.11
63395;BME280;49531;-34.520;150.798;2024-03-29T09:35:20;101705.06;;;26.30;49.10
63395;BME280;49531;-34.520;150.798;2024-03-29T09:37:47;101718.22;;;26.33;48.94
63395;BME280;49531;-34.520;150.798;2024-03-29T09:40:14;101708.06;;;26.28;48.88
63395;BME280;49531;-34.520;150.798;2024-03-29T09:42:43;101724.81;;;26.32;48.98
63395;BME280;49531;-34.520;150.798;2024-03-29T09:45:11;101714.63;;;26.27;49.27
63395;BME280;49531;-34.520;150.798;2024-03-29T09:47:38;101728.88;;;26.29;49.22
63395;BME280;49531;-34.520;150.798;2024-03-29T09:50:08;101720.13;;;26.27;49.00
63395;BME280;49531;-34.520;150.798;2024-03-29T09:52:35;101726.69;;;26.26;49.03
63395;BME280;49531;-34.520;150.798;2024-03-29T09:55:03;101729.69;;;26.24;49.06
63395;BME280;49531;-34.520;150.798;2024-03-29T09:57:31;101728.88;;;26.24;49.13
63395;BME280;49531;-34.520;150.798;2024-03-29T09:59:58;101722.03;;;26.16;49.29
63395;BME280;49531;-34.520;150.798;2024-03-29T10:02:29;101731.06;;;26.22;49.33
63395;BME280;49531;-34.520;150.798;2024-03-29T10:04:57;101724.78;;;26.16;49.13
63395;BME280;49531;-34.520;150.798;2024-03-29T10:07:29;101726.41;;;26.12;49.13
63395;BME280;49531;-34.520;150.798;2024-03-29T10:09:59;101728.31;;;26.12;49.33
63395;BME280;49531;-34.520;150.798;2024-03-29T10:12:28;101729.16;;;26.12;49.46
63395;BME280;49531;-34.520;150.798;2024-03-29T10:14:56;101731.63;;;26.14;49.48
63395;BME280;49531;-34.520;150.798;2024-03-29T10:17:35;101742.56;;;26.14;49.21
63395;BME280;49531;-34.520;150.798;2024-03-29T10:20:05;101735.44;;;26.08;49.47
63395;BME280;49531;-34.520;150.798;2024-03-29T10:22:42;101732.97;;;26.01;49.31
63395;BME280;49531;-34.520;150.798;2024-03-29T10:25:11;101736.53;;;26.07;49.72
63395;BME280;49531;-34.520;150.798;2024-03-29T10:27:40;101744.19;;;26.05;49.38
63395;BME280;49531;-34.520;150.798;2024-03-29T10:30:08;101733.53;;;26.03;49.60
63395;BME280;49531;-34.520;150.798;2024-03-29T10:32:39;101740.91;;;26.03;49.50
63395;BME280;49531;-34.520;150.798;2024-03-29T10:35:09;101738.72;;;26.00;49.69
63395;BME280;49531;-34.520;150.798;2024-03-29T10:37:37;101738.19;;;25.98;49.39
63395;BME280;49531;-34.520;150.798;2024-03-29T10:40:09;101733.28;;;25.95;49.66
63395;BME280;49531;-34.520;150.798;2024-03-29T10:42:40;101741.22;;;25.96;49.53
63395;BME280;49531;-34.520;150.798;2024-03-29T10:45:08;101739.28;;;25.91;49.77
63395;BME280;49531;-34.520;150.798;2024-03-29T10:47:35;101732.72;;;25.92;49.69
63395;BME280;49531;-34.520;150.798;2024-03-29T10:50:03;101740.94;;;25.92;49.54
63395;BME280;49531;-34.520;150.798;2024-03-29T10:52:31;101747.22;;;25.93;49.80
63395;BME280;49531;-34.520;150.798;2024-03-29T10:54:59;101744.75;;;25.91;49.83
63395;BME280;49531;-34.520;150.798;2024-03-29T10:57:27;101743.66;;;25.87;49.77
63395;BME280;49531;-34.520;150.798;2024-03-29T11:00:12;101753.78;;;25.87;49.96
63395;BME280;49531;-34.520;150.798;2024-03-29T11:02:50;101749.13;;;25.87;49.84
63395;BME280;49531;-34.520;150.798;2024-03-29T11:05:22;101740.91;;;25.82;49.91
63395;BME280;49531;-34.520;150.798;2024-03-29T11:07:50;101746.13;;;25.84;49.74
63395;BME280;49531;-34.520;150.798;2024-03-29T11:10:40;101752.41;;;25.79;50.10
63395;BME280;49531;-34.520;150.798;2024-03-29T11:15:57;101754.03;;;25.80;49.75
63395;BME280;49531;-34.520;150.798;2024-03-29T11:18:27;101752.13;;;25.81;49.78
63395;BME280;49531;-34.520;150.798;2024-03-29T11:20:56;101751.59;;;25.79;49.85
63395;BME280;49531;-34.520;150.798;2024-03-29T11:23:26;101754.03;;;25.75;50.04
63395;BME280;49531;-34.520;150.798;2024-03-29T11:25:55;101746.91;;;25.69;49.88
63395;BME280;49531;-34.520;150.798;2024-03-29T11:31:08;101752.66;;;25.73;50.12
63395;BME280;49531;-34.520;150.798;2024-03-29T11:36:16;101746.91;;;25.69;49.85
63395;BME280;49531;-34.520;150.798;2024-03-29T11:38:48;101760.03;;;25.72;49.79
63395;BME280;49531;-34.520;150.798;2024-03-29T11:41:17;101753.75;;;25.72;50.11
63395;BME280;49531;-34.520;150.798;2024-03-29T11:43:45;101736.19;;;25.63;49.75
63395;BME280;49531;-34.520;150.798;2024-03-29T11:46:14;101753.47;;;25.68;49.77
63395;BME280;49531;-34.520;150.798;2024-03-29T11:48:44;101757.31;;;25.72;49.89
63395;BME280;49531;-34.520;150.798;2024-03-29T11:51:21;101751.81;;;25.67;49.84
63395;BME280;49531;-34.520;150.798;2024-03-29T11:53:51;101764.97;;;25.70;49.98
63395;BME280;49531;-34.520;150.798;2024-03-29T11:56:18;101755.91;;;25.65;49.94
63395;BME280;49531;-34.520;150.798;2024-03-29T11:58:47;101755.09;;;25.64;49.90
63395;BME280;49531;-34.520;150.798;2024-03-29T12:01:15;101746.31;;;25.62;49.89
63395;BME280;49531;-34.520;150.798;2024-03-29T12:03:43;101747.94;;;25.63;50.06
63395;BME280;49531;-34.520;150.798;2024-03-29T12:06:10;101748.53;;;25.65;49.88
63395;BME280;49531;-34.520;150.798;2024-03-29T12:08:41;101733.97;;;25.59;49.75
63395;BME280;49531;-34.520;150.798;2024-03-29T12:11:09;101739.19;;;25.61;49.75
63395;BME280;49531;-34.520;150.798;2024-03-29T12:13:36;101737.03;;;25.58;49.63
63395;BME280;49531;-34.520;150.798;2024-03-29T12:16:04;101731.25;;;25.59;49.58
63395;BME280;49531;-34.520;150.798;2024-03-29T12:18:32;101727.41;;;25.60;49.55
63395;BME280;49531;-34.520;150.798;2024-03-29T12:20:59;101720.31;;;25.54;49.91
63395;BME280;49531;-34.520;150.798;2024-03-29T12:23:26;101729.88;;;25.62;49.38
63395;BME280;49531;-34.520;150.798;2024-03-29T12:25:55;101725.78;;;25.54;49.63
63395;BME280;49531;-34.520;150.798;2024-03-29T12:28:24;101730.44;;;25.54;49.81
63395;BME280;49531;-34.520;150.798;2024-03-29T12:30:52;101726.88;;;25.53;49.84
63395;BME280;49531;-34.520;150.798;2024-03-29T12:33:23;101728.53;;;25.54;49.79